CYRL

Red Lake Airport

Red Lake, Ontario, Canada
TAF AMD CYRL 242212Z 2422/2502 30005KT 4SM -RA -DZ BR OVC007 TEMPO 2422/2502 P6SM NSW OVC012 RMK NXT FCST WILL BE ISSUED AT 251045Z
Issued Valid From Valid To
Sep-24 @ 22:12 UTC
(2 hours ago)
Sep-24 @ 22:00 UTC
(2 hours ago)
Sep-25 @ 02:00 UTC
(in 2 hours)
Sep-24 @ 22:00 to Sep-25 @ 02:00
TAF AMD CYRL 242212Z 2422/2502 30005KT 4SM -RA -DZ BR OVC007
Wind Visibility Clouds Conditions
300° at 5 knots 4 miles
  • Overcast at 700' AGL
  • Light Rain
  • Light Drizzle
  • Mist
Temporary Sep-24 @ 22:00 to Sep-25 @ 02:00
TEMPO 2422/2502 P6SM NSW OVC012 RMK NXT FCST WILL BE ISSUED AT 251045Z
Visibility Clouds Conditions
Greater than 6 miles
  • Overcast at 1,200' AGL
TAF AMD CYRL 242212Z 2422/2502 30005KT 4SM -RA -DZ BR OVC007 TEMPO 2422/2502 P6SM NSW OVC012 RMK NXT FCST WILL BE ISSUED AT 251045Z
Issued Sep-24 @ 22:12 UTC
(2 hours ago)
Valid From Sep-24 @ 22:00 UTC
(2 hours ago)
Valid To Sep-25 @ 02:00 UTC
(in 2 hours)
Sep-24 @ 22:00 - Sep-25 @ 02:00
Wind Visibility
300° at 5 knots 4 miles
Clouds
  • Overcast at 700' AGL
Conditions
  • Light Rain
  • Light Drizzle
  • Mist
Temporary Sep-24 @ 22:00 - Sep-25 @ 02:00
Clouds
  • Overcast at 1,200' AGL
Conditions